createdAt,value
2023-05-10T00:00:48.923Z,17.53
2023-05-10T00:03:17.317Z,17.52
2023-05-10T00:05:47.118Z,17.50
2023-05-10T00:08:15.393Z,17.48
2023-05-10T00:10:43.685Z,17.46
2023-05-10T00:13:12.141Z,17.45
2023-05-10T00:15:40.506Z,17.44
2023-05-10T00:18:08.902Z,17.41
2023-05-10T00:20:37.331Z,17.39
2023-05-10T00:23:07.039Z,17.35
2023-05-10T00:25:35.405Z,17.32
2023-05-10T00:28:03.736Z,17.29
2023-05-10T00:30:32.211Z,17.24
2023-05-10T00:33:00.616Z,17.21
2023-05-10T00:35:29.214Z,17.17
2023-05-10T00:37:57.576Z,17.13
2023-05-10T00:40:27.669Z,17.09
2023-05-10T00:42:56.038Z,17.05
2023-05-10T00:45:24.713Z,17.02
2023-05-10T00:47:56.141Z,16.98
2023-05-10T00:50:25.482Z,16.94
2023-05-10T00:52:54.044Z,16.91
2023-05-10T00:55:22.913Z,16.88
2023-05-10T00:57:52.743Z,16.84
2023-05-10T01:00:21.456Z,16.82
2023-05-10T01:02:50.668Z,16.78
2023-05-10T01:05:19.393Z,16.75
2023-05-10T01:07:47.809Z,16.73
2023-05-10T01:10:16.798Z,16.68
2023-05-10T01:12:48.744Z,16.66
2023-05-10T01:15:22.416Z,16.62
2023-05-10T01:17:51.111Z,16.60
2023-05-10T01:20:19.795Z,16.57
2023-05-10T01:23:25.889Z,16.51
2023-05-10T01:26:22.786Z,16.47
2023-05-10T01:29:23.441Z,16.42
2023-05-10T01:32:31.418Z,16.38
2023-05-10T01:35:05.518Z,16.36
2023-05-10T01:37:47.423Z,16.33
2023-05-10T01:40:25.373Z,16.31
2023-05-10T01:43:00.681Z,16.30
2023-05-10T01:45:36.025Z,16.26
2023-05-10T01:48:12.807Z,16.24
2023-05-10T01:50:45.672Z,16.21
2023-05-10T01:53:19.452Z,16.18
2023-05-10T01:55:51.394Z,16.15
2023-05-10T01:58:24.999Z,16.11
2023-05-10T02:00:54.759Z,16.07
2023-05-10T02:03:28.358Z,16.05
2023-05-10T02:05:58.198Z,16.04
2023-05-10T02:08:27.765Z,16.01
2023-05-10T02:10:58.973Z,15.98
2023-05-10T02:13:29.774Z,15.96
2023-05-10T02:15:59.767Z,15.94
2023-05-10T02:18:31.139Z,15.91
2023-05-10T02:21:01.675Z,15.88
2023-05-10T02:23:31.506Z,15.87
2023-05-10T02:26:02.147Z,15.86
2023-05-10T02:28:31.343Z,15.85
2023-05-10T02:31:00.848Z,15.83
2023-05-10T02:33:33.306Z,15.81
2023-05-10T02:36:03.567Z,15.80
2023-05-10T02:38:34.854Z,15.78
2023-05-10T02:41:07.007Z,15.75
2023-05-10T02:43:37.616Z,15.74
2023-05-10T02:46:06.131Z,15.72
2023-05-10T02:48:36.085Z,15.70
2023-05-10T02:51:09.329Z,15.68
2023-05-10T02:53:43.241Z,15.65
2023-05-10T02:56:18.260Z,15.64
2023-05-10T02:58:47.236Z,15.61
2023-05-10T03:01:15.641Z,15.61
2023-05-10T03:03:45.338Z,15.58
2023-05-10T03:06:13.702Z,15.56
2023-05-10T03:08:42.259Z,15.53
2023-05-10T03:11:30.329Z,15.49
2023-05-10T03:14:12.393Z,15.45
2023-05-10T03:16:48.897Z,15.41
2023-05-10T03:19:29.707Z,15.38
2023-05-10T03:22:01.736Z,15.37
2023-05-10T03:24:30.943Z,15.35
2023-05-10T03:27:03.825Z,15.32
2023-05-10T03:29:33.373Z,15.31
2023-05-10T03:32:02.110Z,15.29
2023-05-10T03:34:33.425Z,15.27
2023-05-10T03:37:01.878Z,15.27
2023-05-10T03:39:30.293Z,15.27
2023-05-10T03:41:58.744Z,15.27
2023-05-10T03:44:27.211Z,15.27
2023-05-10T03:46:56.417Z,15.29
2023-05-10T03:49:24.732Z,15.29
2023-05-10T03:51:54.571Z,15.31
2023-05-10T03:54:22.905Z,15.33
2023-05-10T03:56:51.299Z,15.34
2023-05-10T03:59:19.596Z,15.35
2023-05-10T04:01:48.030Z,15.38
2023-05-10T04:04:16.553Z,15.38
2023-05-10T04:06:44.965Z,15.40
2023-05-10T04:09:14.680Z,15.43
2023-05-10T04:11:43.003Z,15.46
2023-05-10T04:14:11.502Z,15.49
2023-05-10T04:16:39.886Z,15.51
2023-05-10T04:19:08.518Z,15.54
2023-05-10T04:21:36.889Z,15.57
2023-05-10T04:24:05.999Z,15.60
2023-05-10T04:26:35.823Z,15.63
2023-05-10T04:29:04.421Z,15.67
2023-05-10T04:31:32.811Z,15.70
2023-05-10T04:34:01.132Z,15.75
2023-05-10T04:36:29.863Z,15.79
2023-05-10T04:38:58.360Z,15.86
2023-05-10T04:41:26.974Z,15.93
2023-05-10T04:43:56.800Z,15.99
2023-05-10T04:46:25.370Z,16.06
2023-05-10T04:48:53.764Z,16.13
2023-05-10T04:51:22.443Z,16.23
2023-05-10T04:54:04.652Z,16.47
2023-05-10T04:56:34.888Z,16.66
2023-05-10T04:59:04.675Z,16.90
2023-05-10T05:01:33.149Z,17.18
2023-05-10T05:04:01.645Z,17.44
2023-05-10T05:06:30.078Z,17.70
2023-05-10T05:08:58.425Z,17.96
2023-05-10T05:11:27.486Z,18.06
2023-05-10T05:13:55.990Z,18.06
2023-05-10T05:16:25.780Z,18.04
2023-05-10T05:18:54.377Z,18.03
2023-05-10T05:21:23.347Z,18.04
2023-05-10T05:23:51.774Z,18.07
2023-05-10T05:26:20.144Z,18.10
2023-05-10T05:28:49.736Z,18.13
2023-05-10T05:31:18.797Z,18.15
2023-05-10T05:33:48.734Z,18.22
2023-05-10T05:36:17.169Z,18.29
2023-05-10T05:38:45.541Z,18.39
2023-05-10T05:41:13.908Z,18.50
2023-05-10T05:43:42.352Z,18.59
2023-05-10T05:46:10.808Z,18.70
2023-05-10T05:48:39.311Z,18.80
2023-05-10T05:51:09.000Z,18.92
2023-05-10T05:53:37.427Z,19.06
2023-05-10T05:56:06.824Z,19.19
2023-05-10T05:58:35.151Z,19.32
2023-05-10T06:01:03.563Z,19.45
2023-05-10T06:03:32.136Z,19.58
2023-05-10T06:06:00.493Z,19.73
2023-05-10T06:08:30.185Z,19.87
2023-05-10T06:10:58.526Z,19.98
2023-05-10T06:13:29.949Z,20.09
2023-05-10T06:15:58.429Z,20.23
2023-05-10T06:18:27.011Z,20.35
2023-05-10T06:20:55.384Z,20.46
2023-05-10T06:23:24.252Z,20.57
2023-05-10T06:25:54.655Z,20.67
2023-05-10T06:28:23.020Z,20.77
2023-05-10T06:30:51.419Z,20.88
2023-05-10T06:33:19.750Z,20.99
2023-05-10T06:35:48.081Z,21.12
2023-05-10T06:38:16.469Z,21.25
2023-05-10T06:40:45.205Z,21.38
2023-05-10T06:43:14.966Z,21.52
2023-05-10T06:45:43.411Z,21.60
2023-05-10T06:48:11.831Z,21.71
2023-05-10T06:50:40.224Z,21.81
2023-05-10T06:53:08.593Z,21.91
2023-05-10T06:55:36.947Z,22.05
2023-05-10T06:58:05.611Z,22.15
2023-05-10T07:00:35.666Z,22.27
2023-05-10T07:03:04.148Z,22.42
2023-05-10T07:05:33.019Z,22.55
2023-05-10T07:08:01.985Z,22.64
2023-05-10T07:10:30.945Z,22.68
2023-05-10T07:12:59.321Z,22.73
2023-05-10T07:15:27.743Z,22.79
2023-05-10T07:17:57.729Z,22.89
2023-05-10T07:20:26.651Z,22.97
2023-05-10T07:22:55.054Z,23.06
2023-05-10T07:25:23.581Z,23.13
2023-05-10T07:27:52.057Z,23.23
2023-05-10T07:30:20.793Z,23.27
2023-05-10T07:32:49.310Z,23.31
2023-05-10T07:35:19.402Z,23.39
2023-05-10T07:37:47.890Z,23.45
2023-05-10T07:40:16.303Z,23.52
2023-05-10T07:42:44.806Z,23.54
2023-05-10T07:45:13.634Z,23.59
2023-05-10T07:47:42.060Z,23.61
2023-05-10T07:50:11.093Z,23.64
2023-05-10T07:52:40.837Z,23.61
2023-05-10T07:55:11.284Z,23.59
2023-05-10T07:57:40.145Z,23.64
2023-05-10T08:00:10.515Z,23.69
2023-05-10T08:02:39.109Z,23.77
2023-05-10T08:05:08.965Z,23.81
2023-05-10T08:07:37.678Z,23.84
2023-05-10T08:10:10.057Z,23.86
2023-05-10T08:12:38.394Z,23.90
2023-05-10T08:15:08.848Z,23.94
2023-05-10T08:17:37.535Z,24.00
2023-05-10T08:20:08.416Z,24.08
2023-05-10T08:22:36.860Z,24.22
2023-05-10T08:25:08.258Z,24.42
2023-05-10T08:27:36.767Z,24.66
2023-05-10T08:30:06.227Z,24.80
2023-05-10T08:32:36.009Z,24.89
2023-05-10T08:35:04.580Z,24.96
2023-05-10T08:37:34.013Z,25.05
2023-05-10T08:40:02.895Z,25.06
2023-05-10T08:42:35.170Z,25.03
2023-05-10T08:45:04.691Z,25.01
2023-05-10T08:47:33.759Z,25.02
2023-05-10T08:50:02.691Z,25.03
2023-05-10T08:52:34.850Z,24.94
2023-05-10T08:55:04.215Z,24.86
2023-05-10T08:57:34.267Z,24.87
2023-05-10T09:00:03.989Z,24.94
2023-05-10T09:02:33.311Z,25.10
2023-05-10T09:05:02.169Z,25.29
2023-05-10T09:07:30.683Z,25.44
2023-05-10T09:10:00.103Z,25.59
2023-05-10T09:12:29.358Z,25.73
2023-05-10T09:15:01.903Z,25.85
2023-05-10T09:17:31.785Z,25.95
2023-05-10T09:20:01.016Z,26.04
2023-05-10T09:22:29.767Z,26.17
2023-05-10T09:25:10.326Z,26.26
2023-05-10T09:27:39.846Z,26.30
2023-05-10T09:30:11.736Z,26.32
2023-05-10T09:32:42.011Z,26.33
2023-05-10T09:35:12.409Z,26.33
2023-05-10T09:37:43.574Z,26.30
2023-05-10T09:40:16.441Z,26.27
2023-05-10T09:42:54.442Z,26.20
2023-05-10T09:45:25.983Z,26.16
2023-05-10T09:47:54.648Z,26.12
2023-05-10T09:50:23.959Z,26.14
2023-05-10T09:52:54.140Z,26.17
2023-05-10T09:55:24.649Z,26.20
2023-05-10T09:58:02.911Z,26.19
2023-05-10T10:00:38.300Z,26.18
2023-05-10T10:03:07.394Z,26.12
2023-05-10T10:05:37.828Z,26.03
2023-05-10T10:08:07.448Z,25.93
2023-05-10T10:10:36.414Z,25.78
2023-05-10T10:13:05.926Z,25.66
2023-05-10T10:15:36.898Z,25.58
2023-05-10T10:18:07.275Z,25.56
2023-05-10T10:20:36.248Z,25.56
2023-05-10T10:23:04.987Z,25.56
2023-05-10T10:25:33.859Z,25.48
2023-05-10T10:28:23.293Z,25.36
2023-05-10T10:30:56.380Z,25.29
2023-05-10T10:33:51.537Z,25.20
2023-05-10T10:36:21.074Z,25.19
2023-05-10T10:39:04.211Z,25.12
2023-05-10T10:41:35.682Z,25.21
2023-05-10T10:44:27.735Z,25.38
2023-05-10T10:47:09.349Z,25.67
2023-05-10T10:49:46.251Z,25.98
2023-05-10T10:52:29.425Z,26.24
2023-05-10T10:55:04.109Z,26.57
2023-05-10T10:57:35.502Z,26.91
2023-05-10T11:00:30.365Z,27.27
2023-05-10T11:03:05.355Z,27.78
2023-05-10T11:05:43.895Z,28.13
2023-05-10T11:08:18.855Z,28.40
2023-05-10T11:11:05.568Z,28.68
2023-05-10T11:13:36.250Z,28.93
2023-05-10T11:16:19.943Z,29.06
2023-05-10T11:19:02.778Z,29.36
2023-05-10T11:21:32.277Z,29.79
2023-05-10T11:24:02.329Z,30.20
2023-05-10T11:26:35.851Z,30.57
2023-05-10T11:29:06.020Z,30.88
2023-05-10T11:31:36.668Z,31.06
2023-05-10T11:34:07.152Z,31.14
2023-05-10T11:36:38.455Z,31.25
2023-05-10T11:39:08.587Z,31.50
2023-05-10T11:41:39.337Z,31.80
2023-05-10T11:44:11.881Z,31.89
2023-05-10T11:46:43.231Z,32.08
2023-05-10T11:49:14.393Z,32.27
2023-05-10T11:51:44.448Z,32.53
2023-05-10T11:54:13.683Z,32.69
2023-05-10T11:56:42.904Z,32.69
2023-05-10T11:59:11.356Z,32.72
2023-05-10T12:01:40.035Z,32.74
2023-05-10T12:04:08.992Z,32.87
2023-05-10T12:06:43.323Z,33.26
2023-05-10T12:09:11.914Z,33.77
2023-05-10T12:11:44.265Z,34.20
2023-05-10T12:14:13.249Z,34.53
2023-05-10T12:16:42.552Z,34.62
2023-05-10T12:19:11.324Z,34.60
2023-05-10T12:21:42.517Z,34.71
2023-05-10T12:24:11.552Z,34.89
2023-05-10T12:29:25.915Z,34.99
2023-05-10T12:31:58.919Z,35.21
2023-05-10T12:34:28.948Z,35.35
2023-05-10T12:36:59.276Z,35.58
2023-05-10T12:39:27.775Z,35.86
2023-05-10T12:41:56.161Z,36.10
2023-05-10T12:44:24.601Z,36.38
2023-05-10T12:46:52.997Z,36.76
2023-05-10T12:49:21.348Z,37.11
2023-05-10T12:51:49.746Z,37.49
2023-05-10T12:54:19.632Z,37.86
2023-05-10T12:56:48.012Z,38.12
2023-05-10T12:59:16.292Z,38.18
2023-05-10T13:01:44.711Z,38.20
2023-05-10T13:04:13.202Z,38.44
2023-05-10T13:06:41.584Z,38.75
2023-05-10T13:09:09.936Z,38.61
2023-05-10T13:11:39.757Z,38.26
2023-05-10T13:14:08.139Z,37.97
2023-05-10T13:16:36.835Z,37.42
2023-05-10T13:19:05.264Z,36.68
2023-05-10T13:21:34.008Z,36.09
2023-05-10T13:24:02.536Z,35.84
2023-05-10T13:26:31.145Z,35.99
2023-05-10T13:29:00.962Z,36.07
2023-05-10T13:31:29.504Z,36.02
2023-05-10T13:33:58.346Z,36.25
2023-05-10T13:36:26.713Z,36.56
2023-05-10T13:38:55.104Z,36.46
2023-05-10T13:41:23.424Z,36.00
2023-05-10T13:43:51.832Z,35.42
2023-05-10T13:46:21.634Z,35.16
2023-05-10T13:48:50.034Z,35.50
2023-05-10T13:51:19.459Z,35.57
2023-05-10T13:53:48.568Z,35.16
2023-05-10T13:56:17.177Z,34.73
2023-05-10T13:58:45.495Z,34.43
2023-05-10T14:01:13.933Z,34.07
2023-05-10T14:03:43.800Z,33.65
2023-05-10T14:06:12.263Z,33.53
2023-05-10T14:08:41.149Z,33.71
2023-05-10T14:11:09.546Z,33.59
2023-05-10T14:13:37.914Z,33.36
2023-05-10T14:16:07.097Z,33.53
2023-05-10T14:18:35.762Z,33.97
2023-05-10T14:21:06.490Z,34.21
2023-05-10T14:23:34.944Z,34.16
2023-05-10T14:26:03.868Z,34.49
2023-05-10T14:28:32.445Z,34.99
2023-05-10T14:31:01.066Z,35.64
2023-05-10T14:33:29.431Z,36.47
2023-05-10T14:35:58.573Z,37.32
2023-05-10T14:38:28.939Z,38.06
2023-05-10T14:40:57.404Z,38.08
2023-05-10T14:43:25.798Z,37.61
2023-05-10T14:45:54.194Z,37.32
2023-05-10T14:48:23.373Z,37.45
2023-05-10T14:50:53.523Z,37.47
2023-05-10T14:53:21.998Z,37.59
2023-05-10T14:55:51.820Z,37.47
2023-05-10T14:58:20.669Z,37.16
2023-05-10T15:00:49.051Z,37.03
2023-05-10T15:03:18.145Z,37.18
2023-05-10T15:05:47.379Z,37.37
2023-05-10T15:08:15.723Z,37.01
2023-05-10T15:10:44.126Z,36.81
2023-05-10T15:13:13.814Z,36.27
2023-05-10T15:15:42.320Z,36.03
2023-05-10T15:18:11.430Z,36.24
2023-05-10T15:20:39.849Z,36.11
2023-05-10T15:23:08.188Z,35.65
2023-05-10T15:25:38.212Z,35.05
2023-05-10T15:28:07.208Z,34.52
2023-05-10T15:30:37.022Z,34.03
2023-05-10T15:33:05.436Z,33.50
2023-05-10T15:35:34.468Z,32.99
2023-05-10T15:38:02.808Z,32.48
2023-05-10T15:40:31.390Z,31.99
2023-05-10T15:42:59.806Z,31.63
2023-05-10T15:45:28.252Z,31.32
2023-05-10T15:47:58.023Z,31.02
2023-05-10T15:50:26.472Z,30.73
2023-05-10T15:52:55.057Z,30.48
2023-05-10T15:55:23.463Z,30.24
2023-05-10T15:57:51.906Z,29.99
2023-05-10T16:00:21.111Z,29.72
2023-05-10T16:02:49.745Z,29.48
2023-05-10T16:05:20.206Z,29.30
2023-05-10T16:07:49.353Z,29.15
2023-05-10T16:10:18.197Z,29.04
2023-05-10T16:12:47.233Z,28.92
2023-05-10T16:15:15.849Z,28.78
2023-05-10T16:17:44.598Z,28.65
2023-05-10T16:20:13.601Z,28.52
2023-05-10T16:22:44.477Z,28.42
2023-05-10T16:25:13.901Z,28.30
2023-05-10T16:27:43.205Z,28.19
2023-05-10T16:30:12.639Z,28.06
2023-05-10T16:32:41.098Z,27.92
2023-05-10T16:35:11.005Z,27.75
2023-05-10T16:37:39.391Z,27.61
2023-05-10T16:40:11.305Z,27.43
2023-05-10T16:42:39.645Z,27.31
2023-05-10T16:45:09.993Z,27.17
2023-05-10T16:47:39.300Z,27.04
2023-05-10T16:50:09.650Z,26.93
2023-05-10T16:52:38.127Z,26.83
2023-05-10T16:55:09.378Z,26.68
2023-05-10T16:57:37.699Z,26.56
2023-05-10T17:00:08.694Z,26.42
2023-05-10T17:02:37.155Z,26.33
2023-05-10T17:05:06.711Z,26.21
2023-05-10T17:07:35.129Z,26.09
2023-05-10T17:10:03.525Z,25.99
2023-05-10T17:12:33.476Z,25.89
2023-05-10T17:15:01.882Z,25.81
2023-05-10T17:17:30.506Z,25.69
2023-05-10T17:19:59.654Z,25.60
2023-05-10T17:22:28.199Z,25.52
2023-05-10T17:24:56.556Z,25.43
2023-05-10T17:27:24.919Z,25.35
2023-05-10T17:29:58.985Z,25.26
2023-05-10T17:32:27.835Z,25.21
2023-05-10T17:34:56.330Z,25.13
2023-05-10T17:37:24.942Z,25.05
2023-05-10T17:39:53.420Z,24.98
2023-05-10T17:42:21.824Z,24.92
2023-05-10T17:44:50.247Z,24.84
2023-05-10T17:47:20.705Z,24.76
2023-05-10T17:49:49.058Z,24.70
2023-05-10T17:52:17.411Z,24.60
2023-05-10T17:54:45.772Z,24.51
2023-05-10T17:57:14.167Z,24.41
2023-05-10T17:59:42.557Z,24.32
2023-05-10T18:02:11.043Z,24.23
2023-05-10T18:04:42.570Z,24.15
2023-05-10T18:07:11.108Z,24.08
2023-05-10T18:09:39.524Z,24.01
2023-05-10T18:12:08.116Z,23.96
2023-05-10T18:14:41.012Z,23.89
2023-05-10T18:17:10.461Z,23.84
2023-05-10T18:19:38.833Z,23.81
2023-05-10T18:22:10.664Z,23.76
2023-05-10T18:24:40.297Z,23.72
2023-05-10T18:27:09.284Z,23.70
2023-05-10T18:29:37.948Z,23.65
2023-05-10T18:32:08.008Z,23.61
2023-05-10T18:34:36.361Z,23.58
2023-05-10T18:37:07.553Z,23.52
2023-05-10T18:39:38.111Z,23.45
2023-05-10T18:42:07.507Z,23.39
2023-05-10T18:44:35.981Z,23.33
2023-05-10T18:47:04.392Z,23.26
2023-05-10T18:49:35.616Z,23.19
2023-05-10T18:52:04.433Z,23.14
2023-05-10T18:54:33.794Z,23.12
2023-05-10T18:57:04.339Z,23.08
2023-05-10T18:59:33.491Z,23.05
2023-05-10T19:02:04.103Z,23.06
2023-05-10T19:04:33.874Z,23.05
2023-05-10T19:07:03.671Z,23.05
2023-05-10T19:09:33.557Z,23.05
2023-05-10T19:12:03.443Z,23.05
2023-05-10T19:14:32.802Z,23.07
2023-05-10T19:17:02.641Z,23.07
2023-05-10T19:19:31.752Z,23.08
2023-05-10T19:22:03.529Z,23.07
2023-05-10T19:24:36.534Z,23.07
2023-05-10T19:27:07.795Z,23.07
2023-05-10T19:29:37.362Z,23.05
2023-05-10T19:32:06.461Z,23.04
2023-05-10T19:34:35.806Z,23.04
2023-05-10T19:37:05.203Z,23.05
2023-05-10T19:39:34.035Z,23.02
2023-05-10T19:42:03.258Z,23.03
2023-05-10T19:44:34.107Z,23.01
2023-05-10T19:47:04.772Z,23.03
2023-05-10T19:49:34.945Z,23.02
2023-05-10T19:52:05.169Z,23.02
2023-05-10T19:54:33.613Z,23.01
2023-05-10T19:57:02.551Z,23.01
2023-05-10T19:59:32.432Z,22.99
2023-05-10T20:02:01.205Z,22.98
2023-05-10T20:04:30.173Z,22.96
2023-05-10T20:06:59.335Z,22.95
2023-05-10T20:09:28.416Z,22.92
2023-05-10T20:11:57.836Z,22.91
2023-05-10T20:14:26.962Z,22.89
2023-05-10T20:16:56.901Z,22.89
2023-05-10T20:19:26.030Z,22.89
2023-05-10T20:21:56.158Z,22.87
2023-05-10T20:24:24.797Z,22.85
2023-05-10T20:26:53.462Z,22.83
2023-05-10T20:29:22.196Z,22.81
2023-05-10T20:31:50.654Z,22.81
2023-05-10T20:34:21.031Z,22.79
2023-05-10T20:36:49.423Z,22.79
2023-05-10T20:39:18.055Z,22.77
2023-05-10T20:41:47.670Z,22.77
2023-05-10T20:44:16.109Z,22.74
2023-05-10T20:46:45.134Z,22.73
2023-05-10T20:49:13.936Z,22.71
2023-05-10T20:51:43.718Z,22.70
2023-05-10T20:54:12.097Z,22.68
2023-05-10T20:56:40.529Z,22.66
2023-05-10T20:59:08.937Z,22.64
2023-05-10T21:01:37.467Z,22.63
2023-05-10T21:04:06.010Z,22.61
2023-05-10T21:06:34.421Z,22.60
2023-05-10T21:09:04.623Z,22.59
2023-05-10T21:11:36.259Z,22.56
2023-05-10T21:14:04.727Z,22.56
2023-05-10T21:16:33.370Z,22.54
2023-05-10T21:19:01.768Z,22.55
2023-05-10T21:21:30.153Z,22.54
2023-05-10T21:23:58.754Z,22.54
2023-05-10T21:26:28.728Z,22.52
2023-05-10T21:28:58.194Z,22.52
2023-05-10T21:31:26.690Z,22.51
2023-05-10T21:33:55.113Z,22.50
2023-05-10T21:36:23.570Z,22.50
2023-05-10T21:38:51.996Z,22.49
2023-05-10T21:41:20.468Z,22.48
2023-05-10T21:43:50.226Z,22.47
2023-05-10T21:46:18.665Z,22.46
2023-05-10T21:48:47.122Z,22.45
2023-05-10T21:51:15.619Z,22.44
2023-05-10T21:53:43.962Z,22.42
2023-05-10T21:56:12.311Z,22.41
2023-05-10T21:58:40.693Z,22.39
2023-05-10T22:01:10.443Z,22.37
2023-05-10T22:03:38.867Z,22.38
2023-05-10T22:06:08.455Z,22.36
2023-05-10T22:08:36.796Z,22.35
2023-05-10T22:11:05.179Z,22.33
2023-05-10T22:13:33.497Z,22.33
2023-05-10T22:16:01.864Z,22.31
2023-05-10T22:18:31.615Z,22.31
2023-05-10T22:20:59.933Z,22.30
2023-05-10T22:23:28.271Z,22.28
2023-05-10T22:26:02.752Z,22.25
2023-05-10T22:28:31.512Z,22.25
2023-05-10T22:30:59.869Z,22.24
2023-05-10T22:33:28.339Z,22.23
2023-05-10T22:35:58.144Z,22.20
2023-05-10T22:38:26.512Z,22.20
2023-05-10T22:40:54.815Z,22.16
2023-05-10T22:43:23.169Z,22.15
2023-05-10T22:45:52.457Z,22.13
2023-05-10T22:48:22.100Z,22.12
2023-05-10T22:50:50.468Z,22.11
2023-05-10T22:53:20.210Z,22.10
2023-05-10T22:55:48.565Z,22.10
2023-05-10T22:58:16.982Z,22.08
2023-05-10T23:00:45.524Z,22.05
2023-05-10T23:03:14.675Z,22.05
2023-05-10T23:05:42.988Z,22.02
2023-05-10T23:08:11.485Z,21.98
2023-05-10T23:10:41.194Z,21.95
2023-05-10T23:13:09.554Z,21.91
2023-05-10T23:15:37.895Z,21.86
2023-05-10T23:18:06.391Z,21.81
2023-05-10T23:20:34.794Z,21.77
2023-05-10T23:23:03.114Z,21.73
2023-05-10T23:25:31.606Z,21.70
2023-05-10T23:28:01.254Z,21.68
2023-05-10T23:30:29.525Z,21.66
2023-05-10T23:32:57.954Z,21.64
2023-05-10T23:35:26.330Z,21.62
2023-05-10T23:37:54.703Z,21.62
2023-05-10T23:40:23.220Z,21.60
2023-05-10T23:42:51.651Z,21.56
2023-05-10T23:45:21.409Z,21.53
2023-05-10T23:47:49.735Z,21.52
2023-05-10T23:50:18.429Z,21.48
2023-05-10T23:52:46.986Z,21.47
2023-05-10T23:55:15.662Z,21.44
2023-05-10T23:57:44.105Z,21.41
